Alliance, NE

2:05 PM MDT on July 24, 2014 (GMT -0600)
Alliance Municipal (KAIA) Elev 3930 ft | 42.06 °N, 102.80 °W | Change Station

Current weather conditions updated 12 minutes ago

Clear
Clear
102 °F
Feels Like 102 °F
N
9
Wind Variable Wind from West
Gusts 18 mph

Today is forecast to be Warmer than yesterday.

Today
High -- | Low -- °F
--% Chance of Precip.
Yesterday
High -- | Low -- °F
Precip. -- in
5:36 AM 8:18 PM
Waning Crescent, 4% visible
Pressure 29.72 in
Visibility 10.0 miles
Clouds Clear
Dew Point 45 °F
Humidity 14%
Rainfall 0.00 in
Snow Depth Not available.
UV 11 out of 12
Pollen 7.00 out of 12
Air Quality Not available.
Flu Activity Not available.
METAR KAIA 241953Z AUTO 26008G16KT 10SM CLR 39/07 A2989 RMK AO2 SLP064 T03890072

More Conditions Fewer Conditions

Pressure 29.72 in
Visibility 10.0 miles
Clouds Clear
Dew Point 45 °F
Humidity 14%
Rainfall 0.00 in
Snow Depth Not available.
UV 11 out of 12
Pollen 7.00 out of 12
Air Quality Not available.
Flu Activity Not available.
METAR KAIA 241953Z AUTO 26008G16KT 10SM CLR 39/07 A2989 RMK AO2 SLP064 T03890072

More Conditions Fewer Conditions

Nowcast | as of 1:59 PM MDT on July 24, 2014

Isolated showers and thunderstorms will continue to develop over southeast Wyoming and the Nebraska Panhandle this afternoon. A few of the stronger thunderstorms will be capable of producing small hail...wind gusts to 40 mph...and brief heavy rain.

×

10-Day Weather Forecast

Almanac

Astronomy

Jul. 24, 2014 Rise Set
Actual Time 5:36 AM MDT 8:18 PM MDT
Civil Twilight 5:04 AM MDT 8:50 PM MDT
Nautical Twilight 4:23 AM MDT 9:31 PM MDT
Astronomical Twilight 3:37 AM MDT 10:17 PM MDT
Moon 3:46 AM MDT 6:34 PM MDT
Length of Visible Light 15h 46m
Length of Day
14h 41m
Tomorrow will be 1m 53s shorter.
Waning Crescent, 4% of the Moon is Illuminated
Today
Waning Crescent
Jul 26
New
Aug 3
First Quarter
Aug 10
Full
Aug 17
Last Quarter

Today's Extremes

State Highs State Lows

Community

WunderPhotos

Upload Photos

1,737,107 photos uploaded!

Nearby

Snow Depth

Station Depth Elevation
No new snow has been reported.

Earthquake Activity

City Distance Mag. Time & Date
No recent earthquake activity has been reported nearby.
Minimum magnitude displayed is 2.5.

Coastal Water Temperatures

Place Temperature
No Stations Reporting

Nearby Weather Stations

Station Location Temp. Heat Index Dew Point Humidity Wind Precip. Elev Updated Type
Wayne Rd., Alliance, NE 100.9 °F 98 °F 50 °F 18% WNW  at  11.0 mph 0.00 in / hr 4091 ft 1:58 PM MDT Normal
Panhandle Coop/Box Butte Co, Alliance, NE 99.4 °F 97 °F 52 °F 20% SSW  at  9.0 mph 0.00 in / hr 4140 ft 1:57 PM MDT Normal

Show More Stations Show Fewer Stations